Flight Track Log - Related Links

Times and Time Zones

All times are in EDT time to prevent confusion due to time zone crossing. See the N163CA flight status page for this flight to view local times or setup timezone preferences in your user account.

Time Position Orientation Groundspeed Altitude Reporting Facility
EDT Latitude Longitude Course Direction KTS MPH feet Rate Location/Type
12:07PM 24.6281 -81.7794 24° Northeast 108 124 2,400  Level Miami Center
12:08PM 24.6578 -81.7797 360° North 110 127 3,100 774 Climbing Miami Center
12:09PM 24.6844 -81.7689 20° North 105 121 4,000 768 Climbing Miami Center
12:10PM 24.7119 -81.7592 18° North 105 121 4,700 672 Climbing Miami Center
12:11PM 24.7414 -81.7492 17° North 105 121 5,400 677 Climbing Miami Center
12:12PM 24.8014 -81.7160 24° Northeast  Level FlightAware Approximate
12:12PM 24.7717 -81.7381 18° North 108 124 6,100  Level Miami Center
12:13PM 24.8053 -81.7450 349° North 120 138 6,600 576 Climbing Miami Center
12:14PM 24.8469 -81.7461 359° North 122 140 7,300 624 Climbing Miami Center
12:15PM 24.8819 -81.7447 North 122 140 7,900 387 Climbing Miami Center
12:16PM 24.9189 -81.7458 358° North 125 144 8,100 48 Climbing Miami Center
12:17PM 24.9575 -81.7439 North 132 152 8,000 -48 Descending Miami Center
12:18PM 24.9975 -81.7492 353° North 138 159 8,000 48 Level Miami Center
12:19PM 25.0439 -81.7503 359° North 139 160 8,100 48 Climbing Miami Center
12:20PM 25.0811 -81.7478 North 138 159 8,100  Level Miami Center
12:21PM 25.1200 -81.7483 359° North 138 159 8,100 -96 Level Miami Center
12:22PM 25.1594 -81.7469 North 138 159 7,900 -97 Descending Miami Center
12:23PM 25.1989 -81.7489 357° North 138 159 7,900 48 Level Miami Center
12:24PM 25.2472 -81.7508 358° North 139 160 8,000  Climbing Miami Center
12:25PM 25.2869 -81.7528 357° North 140 161 7,900 -48 Descending Miami Center
12:26PM 25.3256 -81.7550 357° North 140 161 7,900  Level Miami Center
12:27PM 25.3647 -81.7564 358° North 140 161 7,900 -242 Level Miami Center
12:28PM 25.4039 -81.7550 North 140 161 7,400 -484 Descending Miami Center
12:29PM 25.4447 -81.7550 360° North 141 162 6,900 -576 Descending Miami Center
12:30PM 25.4925 -81.7572 358° North 141 162 6,200 -672 Descending Miami Center
12:31PM 25.5308 -81.7578 359° North 141 162 5,500 -581 Descending Miami Center
12:32PM 25.5683 -81.7625 354° North 141 162 5,000 -484 Descending Miami Center
12:34PM 25.6033 -81.7681 352° North 134 154 4,500 -387 Descending Miami Center
12:35PM 25.6367 -81.7706 356° North 126 145 4,200 -240 Descending Miami Center
12:36PM 25.6786 -81.7694 North 124 143 4,000 -96 Descending Miami Center
12:37PM 25.7106 -81.7669 North 120 138 4,000  Level Miami Center
12:38PM 25.7469 -81.7653 North 119 137 4,000  Level Miami Center
12:39PM 25.7811 -81.7656 360° North 121 139 4,000 -145 Level Miami Center
12:40PM 25.8178 -81.7628 North 121 139 3,700 -480 Descending Miami Center
12:41PM 25.8519 -81.7625 360° North 122 140 3,000 -720 Descending Miami Center
12:42PM 25.8900 -81.7711 348° North 127 146 2,200 -484 Descending Miami Center
12:43PM 25.9272 -81.7686 North 126 145 2,000 -97 Descending Miami Center
12:44PM 25.9608 -81.7703 357° North 126 145 2,000 48 Level Miami Center
12:45PM 25.9967 -81.7853 339° North 127 146 2,100  Climbing Miami Center
12:46PM 26.0300 -81.8033 334° Northwest 129 148 2,000 -288 Descending Miami Center
12:47PM 26.0636 -81.8186 338° Northwest 128 147 1,500 -435 Descending Miami Center
12:48PM 26.0931 -81.8247 349° North 112 129 1,100 -387 Descending Miami Center
12:49PM 26.1183 -81.8133 22° Northeast 98 113 700 -336 Descending Miami Center
12:50PM 26.1364 -81.7936 44° Northeast 89 102 400 -192 Descending Miami Center
12:51PM 26.1500 -81.7794 43° Northeast 87 100 300 -97 Descending Miami Center
12:53PM 26.1524 -81.7756 North  Level Estimated

Login

Don't have an account? Register now (free) for customized features, flight alerts, and more!